createdAt,value
2023-03-21T09:03:38.199Z,8.27
2023-03-21T09:06:04.847Z,9.45
2023-03-21T09:08:31.384Z,8.65
2023-03-21T09:10:57.905Z,7.10
2023-03-21T09:13:24.756Z,5.32
2023-03-21T09:15:51.285Z,7.38
2023-03-21T09:18:17.825Z,6.35
2023-03-21T09:20:45.744Z,6.90
2023-03-21T09:23:13.990Z,6.05
2023-03-21T09:25:41.699Z,7.07
2023-03-21T09:28:08.439Z,6.20
2023-03-21T09:30:36.723Z,6.75
2023-03-21T09:33:04.674Z,6.75
2023-03-21T09:35:31.390Z,7.18
2023-03-21T09:37:58.092Z,5.32
2023-03-21T09:40:30.206Z,5.35
2023-03-21T09:43:18.486Z,7.25
2023-03-21T09:46:19.569Z,8.18
2023-03-21T09:48:57.331Z,5.45
2023-03-21T09:51:28.928Z,6.63
2023-03-21T09:53:57.643Z,8.10
2023-03-21T09:56:25.006Z,8.25
2023-03-21T09:58:55.735Z,4.57
2023-03-21T10:01:26.704Z,4.93
2023-03-21T10:03:54.730Z,3.30
2023-03-21T10:06:23.690Z,6.53
2023-03-21T10:08:50.313Z,5.22
2023-03-21T10:11:24.155Z,5.30
2023-03-21T10:13:58.241Z,11.32
2023-03-21T10:16:43.210Z,4.45
2023-03-21T10:19:15.423Z,3.55
2023-03-21T10:21:59.798Z,4.18
2023-03-21T10:24:29.307Z,6.20
2023-03-21T10:26:56.488Z,4.80
2023-03-21T10:29:34.430Z,9.05
2023-03-21T10:32:01.715Z,4.70
2023-03-21T10:34:37.698Z,3.60
2023-03-21T10:37:05.806Z,5.65
2023-03-21T10:39:45.450Z,6.10
2023-03-21T10:42:24.499Z,9.50
2023-03-21T10:44:54.688Z,8.18
2023-03-21T10:47:26.467Z,6.85
2023-03-21T10:50:10.417Z,2.78
2023-03-21T10:52:44.827Z,4.13
2023-03-21T10:55:27.752Z,5.68
2023-03-21T10:58:08.880Z,4.60
2023-03-21T11:00:39.551Z,6.50
2023-03-21T11:03:06.732Z,5.13
2023-03-21T11:05:39.909Z,6.32
2023-03-21T11:08:12.143Z,7.63
2023-03-21T11:10:59.709Z,4.50
2023-03-21T11:13:33.482Z,3.50
2023-03-21T11:16:11.245Z,6.47
2023-03-21T11:18:43.695Z,7.57
2023-03-21T11:21:13.117Z,6.68
2023-03-21T11:23:49.150Z,3.83
2023-03-21T11:26:30.832Z,5.65
2023-03-21T11:28:58.100Z,4.30
2023-03-21T11:31:40.705Z,6.25
2023-03-21T11:34:09.252Z,5.15
2023-03-21T11:36:38.180Z,4.38
2023-03-21T11:39:34.465Z,4.55
2023-03-21T11:42:01.232Z,4.55
2023-03-21T11:44:31.030Z,7.03
2023-03-21T11:49:24.785Z,6.18
2023-03-21T11:52:18.140Z,3.83
2023-03-21T11:54:58.477Z,5.22
2023-03-21T11:57:32.380Z,5.40
2023-03-21T12:00:02.979Z,5.28
2023-03-21T12:02:50.475Z,4.43
2023-03-21T12:08:09.850Z,6.50
2023-03-21T12:11:01.252Z,5.78
2023-03-21T12:13:50.325Z,4.13
2023-03-21T12:16:47.243Z,6.78
2023-03-21T12:19:29.832Z,4.15
2023-03-21T12:22:25.782Z,4.50
2023-03-21T12:24:57.173Z,5.13
2023-03-21T12:27:39.251Z,5.65
2023-03-21T12:30:20.940Z,5.32
2023-03-21T12:33:08.311Z,7.15
2023-03-21T12:38:15.414Z,5.88
2023-03-21T12:40:54.010Z,4.07
2023-03-21T12:43:32.575Z,4.95
2023-03-21T12:46:03.828Z,4.65
2023-03-21T12:48:43.130Z,5.75
2023-03-21T12:51:15.487Z,7.90
2023-03-21T12:53:49.652Z,5.93
2023-03-21T12:56:22.255Z,5.65
2023-03-21T12:58:57.591Z,4.95
2023-03-21T13:01:25.437Z,6.82
2023-03-21T13:03:59.514Z,5.15
2023-03-21T13:06:28.032Z,5.45
2023-03-21T13:09:02.518Z,5.45
2023-03-21T13:11:30.736Z,4.78
2023-03-21T13:14:23.760Z,6.15
2023-03-21T13:17:10.992Z,7.65
2023-03-21T13:19:49.471Z,4.38
2023-03-21T13:22:26.462Z,4.13
2023-03-21T13:24:59.819Z,4.93
2023-03-21T13:27:31.275Z,5.25
2023-03-21T13:30:06.284Z,3.92
2023-03-21T13:32:37.479Z,4.63
2023-03-21T13:35:19.003Z,6.70
2023-03-21T13:40:34.464Z,5.25
2023-03-21T13:43:01.143Z,4.68
2023-03-21T13:45:31.926Z,4.45
2023-03-21T13:48:06.505Z,4.55
2023-03-21T13:50:51.221Z,3.42
2023-03-21T13:53:23.082Z,5.95
2023-03-21T13:56:17.447Z,4.35
2023-03-21T13:58:43.909Z,9.98
2023-03-21T14:01:31.506Z,4.00
2023-03-21T14:04:10.947Z,4.18
2023-03-21T14:06:58.574Z,4.28
2023-03-21T14:09:43.464Z,4.18
2023-03-21T14:12:19.335Z,3.50
2023-03-21T14:15:06.917Z,4.60
2023-03-21T14:17:34.938Z,4.45
2023-03-21T14:20:13.884Z,3.63
2023-03-21T14:22:40.612Z,3.65
2023-03-21T14:25:12.347Z,4.05
2023-03-21T14:27:49.408Z,3.53
2023-03-21T14:30:25.708Z,3.33
2023-03-21T14:32:59.925Z,4.25
2023-03-21T14:35:30.194Z,5.40
2023-03-21T14:38:00.899Z,3.17
2023-03-21T14:40:28.845Z,4.80
2023-03-21T14:42:55.439Z,3.25
2023-03-21T14:45:28.266Z,4.03
2023-03-21T14:48:07.167Z,4.65
2023-03-21T14:50:42.649Z,4.18
2023-03-21T14:53:19.708Z,3.72
2023-03-21T14:55:54.783Z,3.53
2023-03-21T14:58:21.344Z,3.72
2023-03-21T15:00:50.292Z,2.67
2023-03-21T15:03:22.035Z,3.63
2023-03-21T15:05:48.858Z,4.03
2023-03-21T15:08:18.458Z,3.72
2023-03-21T15:13:40.162Z,3.60
2023-03-21T15:16:08.149Z,5.93
2023-03-21T15:18:38.121Z,3.55
2023-03-21T15:21:12.768Z,3.60
2023-03-21T15:23:44.848Z,4.22
2023-03-21T15:26:20.609Z,3.55
2023-03-21T15:28:49.929Z,3.53
2023-03-21T15:31:22.024Z,3.97
2023-03-21T15:33:50.276Z,3.92
2023-03-21T15:36:24.892Z,3.30
2023-03-21T15:38:52.071Z,3.58
2023-03-21T15:41:21.668Z,4.07
2023-03-21T15:44:09.145Z,5.35
2023-03-21T15:46:41.764Z,4.55
2023-03-21T15:49:10.334Z,5.80
2023-03-21T15:51:37.058Z,3.65
2023-03-21T15:54:04.055Z,3.30
2023-03-21T15:56:33.871Z,3.67
2023-03-21T15:59:04.308Z,4.50
2023-03-21T16:01:32.953Z,3.70
2023-03-21T16:04:08.290Z,3.50
2023-03-21T16:06:37.177Z,6.63
2023-03-21T16:09:15.541Z,4.10
2023-03-21T16:11:43.905Z,3.60
2023-03-21T16:14:10.644Z,4.28
2023-03-21T16:16:38.264Z,3.65
2023-03-21T16:19:05.017Z,4.82
2023-03-21T16:21:31.861Z,4.18
2023-03-21T16:23:58.599Z,3.85
2023-03-21T16:26:28.459Z,3.15
2023-03-21T16:28:55.218Z,5.50
2023-03-21T16:31:27.572Z,4.18
2023-03-21T16:33:54.176Z,3.20
2023-03-21T16:36:28.306Z,5.30
2023-03-21T16:38:55.524Z,7.05
2023-03-21T16:41:23.706Z,4.55
2023-03-21T16:43:50.773Z,4.80
2023-03-21T16:46:20.384Z,3.92
2023-03-21T16:48:50.087Z,4.00
2023-03-21T16:51:30.993Z,3.70
2023-03-21T16:53:57.959Z,4.18
2023-03-21T16:56:38.410Z,4.22
2023-03-21T16:59:06.016Z,3.60
2023-03-21T17:01:32.720Z,4.18
2023-03-21T17:03:59.244Z,4.78
2023-03-21T17:06:29.010Z,3.70
2023-03-21T17:11:25.164Z,3.40
2023-03-21T17:13:54.079Z,4.85
2023-03-21T17:16:27.012Z,3.80
2023-03-21T17:18:54.999Z,4.25
2023-03-21T17:21:24.238Z,3.95
2023-03-21T17:23:51.890Z,4.38
2023-03-21T17:26:21.805Z,4.57
2023-03-21T17:28:48.567Z,4.57
2023-03-21T17:31:20.341Z,3.88
2023-03-21T17:33:48.040Z,4.20
2023-03-21T17:36:28.443Z,4.18
2023-03-21T17:38:55.168Z,4.72
2023-03-21T17:41:21.703Z,5.47
2023-03-21T17:43:48.510Z,3.13
2023-03-21T17:46:17.963Z,3.58
2023-03-21T17:48:45.471Z,5.18
2023-03-21T17:51:12.496Z,5.82
2023-03-21T17:53:39.098Z,6.78
2023-03-21T17:56:06.064Z,7.90
2023-03-21T17:58:32.671Z,6.35
2023-03-21T18:00:59.350Z,3.83
2023-03-21T18:03:25.888Z,5.63
2023-03-21T18:05:52.399Z,4.55
2023-03-21T18:08:19.079Z,5.10
2023-03-21T18:10:45.761Z,4.95
2023-03-21T18:13:13.081Z,6.00
2023-03-21T18:15:39.772Z,7.13
2023-03-21T18:18:06.461Z,4.53
2023-03-21T18:23:19.922Z,3.92
2023-03-21T18:25:47.012Z,5.78
2023-03-21T18:28:13.958Z,5.85
2023-03-21T18:31:06.922Z,5.20
2023-03-21T18:33:28.509Z,4.82
2023-03-21T18:35:59.343Z,5.72
2023-03-21T18:38:26.933Z,6.38
2023-03-21T18:40:53.667Z,10.98
2023-03-21T18:46:07.860Z,14.18
2023-03-21T18:48:35.654Z,18.38
2023-03-21T18:51:02.614Z,18.80
2023-03-21T18:53:29.174Z,11.73
2023-03-21T18:55:55.784Z,8.52
2023-03-21T18:58:22.435Z,7.75
2023-03-21T19:00:50.711Z,5.72
2023-03-21T19:03:30.165Z,7.85
2023-03-21T19:06:01.626Z,5.40
2023-03-21T19:08:28.150Z,6.78
2023-03-21T19:10:59.393Z,5.25
2023-03-21T19:13:26.366Z,6.18
2023-03-21T19:15:54.170Z,7.18
2023-03-21T19:18:41.633Z,6.05
2023-03-21T19:21:07.893Z,6.20
2023-03-21T19:24:00.831Z,7.90
2023-03-21T19:26:21.867Z,5.00
2023-03-21T19:28:48.387Z,6.72
2023-03-21T19:31:15.098Z,7.18
2023-03-21T19:33:41.649Z,26.60
2023-03-21T19:36:18.076Z,14.05
2023-03-21T19:38:48.456Z,9.10
2023-03-21T19:41:15.114Z,8.30
2023-03-21T19:43:52.908Z,5.95
2023-03-21T19:46:21.364Z,7.55
2023-03-21T19:48:48.859Z,7.70
2023-03-21T19:51:31.349Z,7.10
2023-03-21T19:54:09.916Z,6.15
2023-03-21T19:56:47.431Z,7.78
2023-03-21T19:59:14.644Z,5.82
2023-03-21T20:01:41.637Z,8.95
2023-03-21T20:04:09.036Z,5.60
2023-03-21T20:06:38.116Z,6.63
2023-03-21T20:09:47.201Z,6.85
2023-03-21T20:11:51.859Z,9.48
2023-03-21T20:14:18.924Z,10.02
2023-03-21T20:16:45.492Z,11.85
2023-03-21T20:19:13.002Z,11.93
2023-03-21T20:21:48.486Z,8.02
2023-03-21T20:24:20.247Z,9.70
2023-03-21T20:26:46.898Z,6.57
2023-03-21T20:30:07.577Z,8.05
2023-03-21T20:32:01.391Z,7.20
2023-03-21T20:34:30.544Z,8.80
2023-03-21T20:36:58.272Z,6.30
2023-03-21T20:39:25.054Z,7.55
2023-03-21T20:41:51.588Z,10.35
2023-03-21T20:44:45.186Z,7.75
2023-03-21T20:47:04.998Z,9.60
2023-03-21T20:49:31.748Z,8.73
2023-03-21T20:54:44.851Z,8.55
2023-03-21T20:57:11.376Z,9.50
2023-03-21T20:59:37.968Z,8.27
2023-03-21T21:02:04.892Z,8.25
2023-03-21T21:04:52.948Z,6.30
2023-03-21T21:07:21.934Z,7.40
2023-03-21T21:09:49.310Z,6.70
2023-03-21T21:12:17.027Z,10.20
2023-03-21T21:14:43.719Z,7.85
2023-03-21T21:17:30.679Z,8.65
2023-03-21T21:19:57.337Z,7.57
2023-03-21T21:22:23.863Z,8.48
2023-03-21T21:24:50.472Z,6.32
2023-03-21T21:27:17.110Z,7.60
2023-03-21T21:29:43.737Z,8.15
2023-03-21T21:32:10.443Z,6.45
2023-03-21T21:34:37.054Z,8.77
2023-03-21T21:37:03.687Z,8.52
2023-03-21T21:39:30.401Z,9.57
2023-03-21T21:41:57.247Z,8.02
2023-03-21T21:44:23.741Z,11.38
2023-03-21T21:46:50.318Z,7.50
2023-03-21T21:49:18.026Z,9.15
2023-03-21T21:51:45.673Z,8.85
2023-03-21T21:54:13.243Z,7.68
2023-03-21T21:56:39.844Z,9.43
2023-03-21T21:59:06.373Z,9.63
2023-03-21T22:01:33.168Z,9.15
2023-03-21T22:04:00.078Z,8.52
2023-03-21T22:06:29.819Z,8.57
2023-03-21T22:08:56.420Z,9.52
2023-03-21T22:11:23.153Z,8.27
2023-03-21T22:13:49.776Z,8.40
2023-03-21T22:16:16.576Z,7.70
2023-03-21T22:18:43.141Z,9.23
2023-03-21T22:21:09.948Z,8.45
2023-03-21T22:23:36.601Z,7.82
2023-03-21T22:26:03.532Z,8.50
2023-03-21T22:28:31.016Z,7.78
2023-03-21T22:30:57.602Z,6.82
2023-03-21T22:33:24.163Z,10.27
2023-03-21T22:35:52.209Z,8.02
2023-03-21T22:38:19.632Z,9.45
2023-03-21T22:40:46.220Z,7.45
2023-03-21T22:43:12.815Z,7.28
2023-03-21T22:45:40.757Z,10.80
2023-03-21T22:48:07.389Z,9.77
2023-03-21T22:50:33.941Z,11.25
2023-03-21T22:53:00.647Z,7.03
2023-03-21T22:55:27.257Z,8.93
2023-03-21T22:57:53.851Z,7.20
2023-03-21T23:00:20.591Z,7.60
2023-03-21T23:02:47.116Z,8.45
2023-03-21T23:05:13.709Z,9.23
2023-03-21T23:07:40.265Z,10.15
2023-03-21T23:10:07.972Z,7.07
2023-03-21T23:12:34.830Z,8.70
2023-03-21T23:15:02.390Z,9.02
2023-03-21T23:17:29.200Z,7.53
2023-03-21T23:19:55.729Z,7.95
2023-03-21T23:22:22.323Z,7.03
2023-03-21T23:24:48.880Z,10.93
2023-03-21T23:27:15.409Z,8.52
2023-03-21T23:29:42.127Z,8.60
2023-03-21T23:32:08.659Z,11.43
2023-03-21T23:34:35.163Z,9.10
2023-03-21T23:37:01.651Z,10.18
2023-03-21T23:39:28.187Z,7.38
2023-03-21T23:41:54.756Z,7.70
2023-03-21T23:44:21.346Z,10.18
2023-03-21T23:46:47.856Z,10.93
2023-03-21T23:49:14.436Z,9.38
2023-03-21T23:51:41.035Z,10.05
2023-03-21T23:54:07.619Z,9.80
2023-03-21T23:56:34.154Z,9.68
2023-03-21T23:59:00.746Z,9.02
